createdAt,value
2024-02-23T00:00:43.101Z,95360.38
2024-02-23T00:01:45.523Z,95372.03
2024-02-23T00:02:46.978Z,95375.03
2024-02-23T00:03:50.876Z,95378.88
2024-02-23T00:04:58.469Z,95379.22
2024-02-23T00:06:00.218Z,95392.00
2024-02-23T00:07:03.968Z,95396.69
2024-02-23T00:08:05.751Z,95392.72
2024-02-23T00:09:07.274Z,95389.31
2024-02-23T00:10:09.031Z,95386.19
2024-02-23T00:11:10.642Z,95380.59
2024-02-23T00:12:12.522Z,95374.03
2024-02-23T00:13:14.109Z,95382.56
2024-02-23T00:14:16.784Z,95383.16
2024-02-23T00:15:18.350Z,95395.78
2024-02-23T00:16:20.613Z,95393.78
2024-02-23T00:17:23.165Z,95413.63
2024-02-23T00:18:24.797Z,95415.78
2024-02-23T00:19:26.350Z,95427.75
2024-02-23T00:20:27.884Z,95428.78
2024-02-23T00:21:29.344Z,95434.88
2024-02-23T00:22:30.959Z,95433.72
2024-02-23T00:23:32.481Z,95432.56
2024-02-23T00:24:34.098Z,95438.97
2024-02-23T00:25:35.541Z,95436.34
2024-02-23T00:26:36.985Z,95446.84
2024-02-23T00:27:40.726Z,95449.78
2024-02-23T00:28:42.438Z,95455.03
2024-02-23T00:29:43.948Z,95438.53
2024-02-23T00:30:45.476Z,95439.69
2024-02-23T00:31:46.978Z,95433.47
2024-02-23T00:32:48.487Z,95435.00
2024-02-23T00:33:50.358Z,95434.59
2024-02-23T00:34:52.231Z,95436.09
2024-02-23T00:35:53.812Z,95430.91
2024-02-23T00:36:55.273Z,95429.06
2024-02-23T00:37:56.747Z,95426.72
2024-02-23T00:38:58.259Z,95417.69
2024-02-23T00:39:59.757Z,95433.03
2024-02-23T00:41:01.345Z,95436.81
2024-02-23T00:42:03.002Z,95448.53
2024-02-23T00:43:05.222Z,95464.31
2024-02-23T00:44:07.120Z,95466.19
2024-02-23T00:45:09.007Z,95469.19
2024-02-23T00:46:10.546Z,95464.78
2024-02-23T00:47:12.074Z,95482.50
2024-02-23T00:48:14.909Z,95489.28
2024-02-23T00:49:16.550Z,95497.56
2024-02-23T00:50:18.424Z,95516.75
2024-02-23T00:51:19.905Z,95501.81
2024-02-23T00:52:21.399Z,95507.47
2024-02-23T00:53:23.048Z,95517.31
2024-02-23T00:54:24.614Z,95519.50
2024-02-23T00:55:27.836Z,95520.66
2024-02-23T00:56:35.974Z,95519.19
2024-02-23T00:57:42.576Z,95533.44
2024-02-23T00:58:44.098Z,95529.75
2024-02-23T00:59:45.635Z,95535.66
2024-02-23T01:00:47.196Z,95534.25
2024-02-23T01:01:48.725Z,95532.75
2024-02-23T01:02:50.243Z,95533.91
2024-02-23T01:03:51.764Z,95527.97
2024-02-23T01:04:57.938Z,95527.66
2024-02-23T01:05:59.540Z,95529.59
2024-02-23T01:07:01.077Z,95533.38
2024-02-23T01:08:02.657Z,95528.97
2024-02-23T01:09:05.546Z,95527.56
2024-02-23T01:10:07.495Z,95522.31
2024-02-23T01:11:09.029Z,95524.19
2024-02-23T01:12:10.638Z,95530.63
2024-02-23T01:13:12.187Z,95552.44
2024-02-23T01:14:13.759Z,95535.38
2024-02-23T01:15:15.898Z,95535.38
2024-02-23T01:16:17.440Z,95543.31
2024-02-23T01:17:18.967Z,95549.34
2024-02-23T01:18:20.934Z,95549.31
2024-02-23T01:19:24.669Z,95541.09
2024-02-23T01:20:26.358Z,95546.31
2024-02-23T01:21:27.945Z,95543.00
2024-02-23T01:22:29.394Z,95534.50
2024-02-23T01:23:30.915Z,95547.53
2024-02-23T01:24:32.514Z,95552.38
2024-02-23T01:25:36.014Z,95559.16
2024-02-23T01:26:39.944Z,95566.69
2024-02-23T01:27:45.627Z,95557.00
2024-02-23T01:28:47.131Z,95567.06
2024-02-23T01:29:48.835Z,95562.97
2024-02-23T01:30:50.314Z,95558.81
2024-02-23T01:31:52.749Z,95547.97
2024-02-23T01:32:54.313Z,95562.53
2024-02-23T01:33:55.988Z,95561.91
2024-02-23T01:34:57.620Z,95558.91
2024-02-23T01:35:59.363Z,95568.63
2024-02-23T01:37:00.916Z,95565.97
2024-02-23T01:38:02.425Z,95561.03
2024-02-23T01:39:05.051Z,95563.03
2024-02-23T01:40:07.332Z,95561.66
2024-02-23T01:41:08.919Z,95551.19
2024-02-23T01:42:12.797Z,95560.97
2024-02-23T01:43:14.856Z,95563.16
2024-02-23T01:44:18.253Z,95554.91
2024-02-23T01:45:19.773Z,95554.19
2024-02-23T01:46:21.602Z,95556.88
2024-02-23T01:47:24.964Z,95554.59
2024-02-23T01:48:27.224Z,95549.44
2024-02-23T01:49:33.674Z,95551.69
2024-02-23T01:50:35.684Z,95565.94
2024-02-23T01:51:37.500Z,95565.13
2024-02-23T01:52:39.041Z,95562.91
2024-02-23T01:53:41.331Z,95570.06
2024-02-23T01:54:43.351Z,95569.75
2024-02-23T01:55:46.761Z,95569.78
2024-02-23T01:56:48.305Z,95569.50
2024-02-23T01:57:50.741Z,95566.06
2024-02-23T01:58:53.518Z,95567.19
2024-02-23T01:59:56.004Z,95573.28
2024-02-23T02:00:57.598Z,95579.34
2024-02-23T02:01:59.193Z,95581.59
2024-02-23T02:03:00.930Z,95577.91
2024-02-23T02:04:02.826Z,95579.34
2024-02-23T02:05:04.694Z,95571.56
2024-02-23T02:06:11.335Z,95574.63
2024-02-23T02:07:13.066Z,95575.75
2024-02-23T02:08:14.568Z,95583.56
2024-02-23T02:09:16.329Z,95585.53
2024-02-23T02:10:18.726Z,95581.78
2024-02-23T02:11:20.544Z,95583.97
2024-02-23T02:12:28.931Z,95578.38
2024-02-23T02:13:31.449Z,95578.81
2024-02-23T02:14:34.662Z,95585.53
2024-02-23T02:15:36.425Z,95584.00
2024-02-23T02:16:38.095Z,95596.69
2024-02-23T02:17:39.820Z,95603.44
2024-02-23T02:18:41.373Z,95599.00
2024-02-23T02:19:48.861Z,95595.97
2024-02-23T02:21:00.434Z,95608.28
2024-02-23T02:22:01.974Z,95603.44
2024-02-23T02:23:04.246Z,95604.97
2024-02-23T02:24:06.179Z,95607.56
2024-02-23T02:25:07.975Z,95606.06
2024-02-23T02:26:09.665Z,95604.94
2024-02-23T02:27:11.245Z,95608.72
2024-02-23T02:28:12.827Z,95619.25
2024-02-23T02:29:15.199Z,95617.78
2024-02-23T02:30:16.765Z,95611.88
2024-02-23T02:31:18.260Z,95621.16
2024-02-23T02:32:19.871Z,95621.56
2024-02-23T02:33:22.367Z,95631.28
2024-02-23T02:34:24.384Z,95632.03
2024-02-23T02:35:26.048Z,95629.81
2024-02-23T02:36:27.622Z,95634.28
2024-02-23T02:37:29.106Z,95637.75
2024-02-23T02:38:30.703Z,95638.44
2024-02-23T02:39:32.273Z,95645.88
2024-02-23T02:40:33.797Z,95639.16
2024-02-23T02:41:35.401Z,95638.41
2024-02-23T02:42:36.991Z,95641.41
2024-02-23T02:43:38.537Z,95654.88
2024-02-23T02:44:40.067Z,95668.00
2024-02-23T02:45:41.554Z,95659.09
2024-02-23T02:46:43.222Z,95670.75
2024-02-23T02:47:44.716Z,95662.47
2024-02-23T02:48:46.258Z,95660.22
2024-02-23T02:49:49.794Z,95651.25
2024-02-23T02:50:54.409Z,95660.59
2024-02-23T02:51:56.190Z,95668.88
2024-02-23T02:52:57.783Z,95662.88
2024-02-23T02:53:59.312Z,95661.75
2024-02-23T02:55:00.828Z,95665.41
2024-02-23T02:56:02.365Z,95676.25
2024-02-23T02:57:03.884Z,95667.66
2024-02-23T02:58:05.335Z,95674.72
2024-02-23T02:59:06.822Z,95682.16
2024-02-23T03:00:11.553Z,95677.72
2024-02-23T03:01:13.287Z,95687.47
2024-02-23T03:02:15.230Z,95688.63
2024-02-23T03:03:16.764Z,95685.63
2024-02-23T03:04:18.329Z,95689.38
2024-02-23T03:05:19.950Z,95702.09
2024-02-23T03:06:21.697Z,95691.28
2024-02-23T03:07:23.221Z,95692.13
2024-02-23T03:08:24.771Z,95687.63
2024-02-23T03:09:26.347Z,95687.56
2024-02-23T03:10:28.047Z,95684.56
2024-02-23T03:11:29.586Z,95690.97
2024-02-23T03:12:31.160Z,95686.88
2024-02-23T03:13:32.897Z,95694.34
2024-02-23T03:14:38.270Z,95691.31
2024-02-23T03:15:40.531Z,95689.13
2024-02-23T03:16:43.086Z,95690.69
2024-02-23T03:17:44.663Z,95690.31
2024-02-23T03:18:46.958Z,95684.69
2024-02-23T03:19:48.627Z,95694.09
2024-02-23T03:20:50.371Z,95706.41
2024-02-23T03:21:51.992Z,95699.63
2024-02-23T03:22:53.493Z,95691.44
2024-02-23T03:23:55.051Z,95685.09
2024-02-23T03:24:56.573Z,95681.38
2024-02-23T03:25:58.273Z,95690.75
2024-02-23T03:27:00.034Z,95693.75
2024-02-23T03:28:01.666Z,95694.91
2024-02-23T03:29:03.241Z,95698.28
2024-02-23T03:30:06.161Z,95698.72
2024-02-23T03:31:07.692Z,95699.84
2024-02-23T03:32:09.358Z,95696.88
2024-02-23T03:33:11.113Z,95689.06
2024-02-23T03:34:14.316Z,95687.19
2024-02-23T03:35:16.066Z,95695.44
2024-02-23T03:36:17.551Z,95700.72
2024-02-23T03:37:19.077Z,95706.66
2024-02-23T03:38:20.668Z,95705.13
2024-02-23T03:39:22.256Z,95701.81
2024-02-23T03:40:23.768Z,95711.53
2024-02-23T03:41:25.550Z,95715.66
2024-02-23T03:42:27.664Z,95714.50
2024-02-23T03:43:30.658Z,95716.81
2024-02-23T03:44:33.476Z,95705.97
2024-02-23T03:45:35.032Z,95722.38
2024-02-23T03:46:36.688Z,95726.53
2024-02-23T03:47:39.984Z,95727.63
2024-02-23T03:48:41.758Z,95729.88
2024-02-23T03:49:43.298Z,95744.44
2024-02-23T03:50:44.839Z,95742.22
2024-02-23T03:51:48.831Z,95743.28
2024-02-23T03:52:50.366Z,95738.81
2024-02-23T03:53:51.887Z,95747.06
2024-02-23T03:54:55.136Z,95744.78
2024-02-23T03:55:58.256Z,95735.84
2024-02-23T03:56:59.966Z,95733.59
2024-02-23T03:58:01.417Z,95732.09
2024-02-23T03:59:02.958Z,95730.63
2024-02-23T04:00:05.441Z,95738.16
2024-02-23T04:01:06.933Z,95737.75
2024-02-23T04:02:08.493Z,95740.72
2024-02-23T04:03:10.075Z,95748.63
2024-02-23T04:04:11.603Z,95748.25
2024-02-23T04:05:13.790Z,95756.47
2024-02-23T04:06:15.331Z,95744.53
2024-02-23T04:07:16.984Z,95738.91
2024-02-23T04:08:18.503Z,95732.16
2024-02-23T04:09:20.128Z,95735.91
2024-02-23T04:10:21.654Z,95736.63
2024-02-23T04:11:23.440Z,95736.28
2024-02-23T04:12:25.802Z,95717.59
2024-02-23T04:13:27.406Z,95726.19
2024-02-23T04:14:28.924Z,95723.94
2024-02-23T04:15:30.453Z,95723.56
2024-02-23T04:16:32.849Z,95720.19
2024-02-23T04:17:34.438Z,95714.22
2024-02-23T04:18:35.960Z,95710.84
2024-02-23T04:19:37.531Z,95709.78
2024-02-23T04:20:39.128Z,95707.16
2024-02-23T04:21:40.951Z,95708.63
2024-02-23T04:22:42.504Z,95714.59
2024-02-23T04:23:47.084Z,95718.69
2024-02-23T04:24:48.661Z,95721.63
2024-02-23T04:25:52.169Z,95722.06
2024-02-23T04:26:53.957Z,95721.31
2024-02-23T04:27:55.450Z,95711.66
2024-02-23T04:28:56.929Z,95710.56
2024-02-23T04:29:58.517Z,95715.78
2024-02-23T04:31:00.545Z,95721.38
2024-02-23T04:32:02.640Z,95721.69
2024-02-23T04:33:04.449Z,95725.44
2024-02-23T04:34:06.158Z,95730.25
2024-02-23T04:35:08.168Z,95740.38
2024-02-23T04:36:09.759Z,95734.47
2024-02-23T04:37:11.243Z,95735.59
2024-02-23T04:38:12.744Z,95737.09
2024-02-23T04:39:14.258Z,95746.09
2024-02-23T04:40:15.883Z,95748.31
2024-02-23T04:41:21.852Z,95747.63
2024-02-23T04:42:23.428Z,95766.63
2024-02-23T04:43:25.560Z,95756.53
2024-02-23T04:44:27.030Z,95760.66
2024-02-23T04:45:28.608Z,95750.97
2024-02-23T04:46:31.065Z,95754.34
2024-02-23T04:47:33.727Z,95759.56
2024-02-23T04:48:37.308Z,95755.06
2024-02-23T04:49:38.849Z,95755.47
2024-02-23T04:50:40.372Z,95752.81
2024-02-23T04:51:41.876Z,95757.69
2024-02-23T04:52:43.352Z,95754.72
2024-02-23T04:53:44.824Z,95755.84
2024-02-23T04:54:46.329Z,95760.66
2024-02-23T04:55:47.810Z,95750.25
2024-02-23T04:56:49.284Z,95749.06
2024-02-23T04:57:52.849Z,95748.31
2024-02-23T04:58:54.412Z,95743.81
2024-02-23T04:59:55.958Z,95754.28
2024-02-23T05:00:57.396Z,95762.88
2024-02-23T05:01:59.389Z,95765.53
2024-02-23T05:03:04.380Z,95768.88
2024-02-23T05:04:06.161Z,95762.47
2024-02-23T05:05:08.909Z,95772.16
2024-02-23T05:06:10.495Z,95771.41
2024-02-23T05:07:12.038Z,95781.13
2024-02-23T05:08:13.536Z,95787.13
2024-02-23T05:09:15.097Z,95791.25
2024-02-23T05:10:18.185Z,95788.66
2024-02-23T05:11:19.680Z,95789.81
2024-02-23T05:12:21.286Z,95790.56
2024-02-23T05:13:22.762Z,95784.94
2024-02-23T05:14:24.399Z,95791.72
2024-02-23T05:15:25.884Z,95788.34
2024-02-23T05:16:27.457Z,95783.84
2024-02-23T05:17:31.724Z,95777.16
2024-02-23T05:18:33.218Z,95778.28
2024-02-23T05:19:34.812Z,95782.38
2024-02-23T05:20:36.470Z,95775.28
2024-02-23T05:21:37.964Z,95770.41
2024-02-23T05:22:40.472Z,95771.53
2024-02-23T05:23:42.130Z,95762.19
2024-02-23T05:24:45.683Z,95764.81
2024-02-23T05:25:47.172Z,95771.53
2024-02-23T05:26:49.088Z,95778.66
2024-02-23T05:27:50.658Z,95783.94
2024-02-23T05:28:52.358Z,95781.72
2024-02-23T05:29:54.215Z,95788.34
2024-02-23T05:30:57.330Z,95788.34
2024-02-23T05:32:00.970Z,95781.97
2024-02-23T05:33:04.465Z,95777.47
2024-02-23T05:34:12.835Z,95783.84
2024-02-23T05:35:14.414Z,95783.47
2024-02-23T05:36:16.942Z,95785.34
2024-02-23T05:37:18.724Z,95788.75
2024-02-23T05:38:20.292Z,95788.38
2024-02-23T05:39:21.868Z,95784.66
2024-02-23T05:40:23.437Z,95789.50
2024-02-23T05:41:25.247Z,95788.34
2024-02-23T05:42:27.654Z,95784.22
2024-02-23T05:43:29.238Z,95776.72
2024-02-23T05:44:30.762Z,95778.22
2024-02-23T05:45:32.320Z,95777.16
2024-02-23T05:46:34.463Z,95780.84
2024-02-23T05:47:37.680Z,95774.88
2024-02-23T05:48:39.273Z,95781.63
2024-02-23T05:49:41.198Z,95773.41
2024-02-23T05:50:42.751Z,95772.31
2024-02-23T05:51:44.641Z,95766.28
2024-02-23T05:52:46.197Z,95781.16
2024-02-23T05:53:47.650Z,95788.28
2024-02-23T05:54:52.592Z,95792.44
2024-02-23T05:55:54.568Z,95796.53
2024-02-23T05:56:56.143Z,95779.03
2024-02-23T05:58:00.806Z,95777.50
2024-02-23T05:59:02.354Z,95769.25
2024-02-23T06:00:05.149Z,95770.03
2024-02-23T06:01:06.787Z,95768.91
2024-02-23T06:02:08.369Z,95760.72
2024-02-23T06:03:09.878Z,95764.84
2024-02-23T06:04:11.345Z,95764.84
2024-02-23T06:05:13.842Z,95783.44
2024-02-23T06:06:15.984Z,95799.16
2024-02-23T06:07:17.796Z,95802.91
2024-02-23T06:08:19.324Z,95804.03
2024-02-23T06:09:20.816Z,95808.53
2024-02-23T06:10:22.314Z,95803.63
2024-02-23T06:11:23.860Z,95812.56
2024-02-23T06:12:25.946Z,95807.34
2024-02-23T06:13:27.453Z,95804.72
2024-02-23T06:14:28.982Z,95805.47
2024-02-23T06:15:30.539Z,95800.63
2024-02-23T06:16:32.054Z,95806.19
2024-02-23T06:17:33.732Z,95809.59
2024-02-23T06:18:35.565Z,95807.78
2024-02-23T06:19:37.330Z,95813.03
2024-02-23T06:20:39.076Z,95815.25
2024-02-23T06:21:40.724Z,95808.53
2024-02-23T06:22:42.214Z,95808.50
2024-02-23T06:23:44.089Z,95806.66
2024-02-23T06:24:45.583Z,95810.38
2024-02-23T06:25:47.730Z,95805.53
2024-02-23T06:26:50.337Z,95809.28
2024-02-23T06:27:51.808Z,95814.09
2024-02-23T06:28:53.377Z,95823.44
2024-02-23T06:29:55.050Z,95828.34
2024-02-23T06:30:56.536Z,95835.84
2024-02-23T06:31:58.125Z,95840.66
2024-02-23T06:32:59.704Z,95830.94
2024-02-23T06:34:01.430Z,95845.50
2024-02-23T06:35:04.123Z,95834.34
2024-02-23T06:36:06.243Z,95844.81
2024-02-23T06:37:07.772Z,95853.41
2024-02-23T06:38:09.267Z,95845.22
2024-02-23T06:39:11.931Z,95859.78
2024-02-23T06:40:13.637Z,95862.06
2024-02-23T06:41:15.481Z,95871.41
2024-02-23T06:42:17.083Z,95869.91
2024-02-23T06:43:21.266Z,95870.63
2024-02-23T06:44:24.657Z,95867.28
2024-02-23T06:45:27.013Z,95862.44
2024-02-23T06:46:28.469Z,95858.75
2024-02-23T06:47:30.071Z,95857.63
2024-02-23T06:48:31.765Z,95862.09
2024-02-23T06:49:33.461Z,95860.97
2024-02-23T06:50:35.096Z,95856.47
2024-02-23T06:51:36.546Z,95855.38
2024-02-23T06:52:38.539Z,95856.13
2024-02-23T06:53:40.106Z,95846.81
2024-02-23T06:54:41.704Z,95845.66
2024-02-23T06:55:43.144Z,95848.66
2024-02-23T06:56:44.643Z,95855.38
2024-02-23T06:57:46.127Z,95851.28
2024-02-23T06:58:47.615Z,95859.09
2024-02-23T06:59:49.040Z,95857.97
2024-02-23T07:00:50.591Z,95864.31
2024-02-23T07:01:52.921Z,95871.44
2024-02-23T07:02:54.491Z,95878.16
2024-02-23T07:03:56.001Z,95878.91
2024-02-23T07:04:58.018Z,95878.94
2024-02-23T07:06:00.107Z,95882.69
2024-02-23T07:07:07.692Z,95881.91
2024-02-23T07:08:09.447Z,95884.16
2024-02-23T07:09:12.566Z,95892.38
2024-02-23T07:10:14.422Z,95890.50
2024-02-23T07:11:16.069Z,95888.63
2024-02-23T07:12:17.730Z,95887.13
2024-02-23T07:13:20.560Z,95885.63
2024-02-23T07:14:23.226Z,95882.66
2024-02-23T07:15:25.742Z,95880.41
2024-02-23T07:16:27.259Z,95886.78
2024-02-23T07:17:29.458Z,95882.28
2024-02-23T07:18:31.088Z,95884.16
2024-02-23T07:19:32.606Z,95874.06
2024-02-23T07:20:34.201Z,95874.06
2024-02-23T07:21:35.700Z,95883.00
2024-02-23T07:22:37.614Z,95874.81
2024-02-23T07:23:39.503Z,95879.28
2024-02-23T07:24:42.089Z,95883.75
2024-02-23T07:25:43.627Z,95877.38
2024-02-23T07:26:45.058Z,95878.88
2024-02-23T07:27:46.645Z,95868.78
2024-02-23T07:28:48.086Z,95868.03
2024-02-23T07:29:50.128Z,95862.06
2024-02-23T07:30:52.256Z,95863.53
2024-02-23T07:31:57.099Z,95861.31
2024-02-23T07:32:58.678Z,95860.22
2024-02-23T07:34:00.540Z,95862.78
2024-02-23T07:35:02.145Z,95857.16
2024-02-23T07:36:03.955Z,95847.78
2024-02-23T07:37:05.483Z,95853.00
2024-02-23T07:38:06.987Z,95853.34
2024-02-23T07:39:08.456Z,95852.25
2024-02-23T07:40:10.347Z,95857.84
2024-02-23T07:41:14.301Z,95857.13
2024-02-23T07:42:19.691Z,95869.09
2024-02-23T07:43:21.206Z,95867.91
2024-02-23T07:44:22.780Z,95864.56
2024-02-23T07:45:27.603Z,95865.34
2024-02-23T07:46:29.494Z,95871.28
2024-02-23T07:47:32.523Z,95873.19
2024-02-23T07:48:34.392Z,95876.19
2024-02-23T07:49:36.145Z,95882.56
2024-02-23T07:50:37.961Z,95887.41
2024-02-23T07:51:39.494Z,95886.72
2024-02-23T07:52:41.016Z,95894.94
2024-02-23T07:53:42.590Z,95894.22
2024-02-23T07:54:44.068Z,95892.72
2024-02-23T07:55:45.679Z,95906.91
2024-02-23T07:56:47.123Z,95905.78
2024-02-23T07:57:48.960Z,95904.63
2024-02-23T07:58:50.475Z,95911.34
2024-02-23T07:59:52.183Z,95916.19
2024-02-23T08:00:54.195Z,95911.72
2024-02-23T08:01:56.803Z,95919.91
2024-02-23T08:02:58.638Z,95925.50
2024-02-23T08:04:00.132Z,95921.41
2024-02-23T08:05:02.215Z,95927.41
2024-02-23T08:06:04.370Z,95928.16
2024-02-23T08:07:06.096Z,95923.69
2024-02-23T08:08:08.230Z,95926.63
2024-02-23T08:09:10.519Z,95921.75
2024-02-23T08:10:14.032Z,95915.78
2024-02-23T08:11:15.609Z,95924.75
2024-02-23T08:12:17.472Z,95916.13
2024-02-23T08:13:19.116Z,95919.13
2024-02-23T08:14:20.703Z,95918.00
2024-02-23T08:15:22.339Z,95919.13
2024-02-23T08:16:26.296Z,95919.88
2024-02-23T08:17:27.951Z,95918.75
2024-02-23T08:18:29.481Z,95913.91
2024-02-23T08:19:31.049Z,95917.66
2024-02-23T08:20:32.734Z,95919.53
2024-02-23T08:21:34.266Z,95918.75
2024-02-23T08:22:35.805Z,95920.97
2024-02-23T08:23:37.847Z,95916.13
2024-02-23T08:24:39.389Z,95919.50
2024-02-23T08:25:40.943Z,95916.19
2024-02-23T08:26:43.146Z,95926.22
2024-02-23T08:27:44.817Z,95921.31
2024-02-23T08:28:46.397Z,95921.31
2024-02-23T08:29:47.887Z,95920.56
2024-02-23T08:30:49.786Z,95919.81
2024-02-23T08:31:51.298Z,95903.34
2024-02-23T08:32:53.137Z,95898.84
2024-02-23T08:33:54.867Z,95896.16
2024-02-23T08:35:00.644Z,95899.09
2024-02-23T08:36:02.815Z,95885.22
2024-02-23T08:37:04.672Z,95883.00
2024-02-23T08:38:06.324Z,95880.38
2024-02-23T08:39:10.090Z,95874.69
2024-02-23T08:40:13.304Z,95878.72
2024-02-23T08:41:14.914Z,95884.34
2024-02-23T08:42:16.477Z,95884.38
2024-02-23T08:43:18.033Z,95881.66
2024-02-23T08:44:19.629Z,95888.03
2024-02-23T08:45:21.265Z,95889.53
2024-02-23T08:46:22.852Z,95888.38
2024-02-23T08:47:24.399Z,95891.00
2024-02-23T08:48:26.043Z,95900.81
2024-02-23T08:49:27.607Z,95907.47
2024-02-23T08:50:29.262Z,95896.63
2024-02-23T08:51:30.890Z,95904.13
2024-02-23T08:52:32.463Z,95905.97
2024-02-23T08:53:34.083Z,95907.81
2024-02-23T08:54:35.622Z,95909.38
2024-02-23T08:55:37.107Z,95908.59
2024-02-23T08:56:43.792Z,95921.59
2024-02-23T08:57:45.484Z,95925.00
2024-02-23T08:58:47.065Z,95932.88
2024-02-23T08:59:48.812Z,95937.72
2024-02-23T09:00:50.432Z,95935.41
2024-02-23T09:01:52.176Z,95936.53
2024-02-23T09:02:53.845Z,95935.72
2024-02-23T09:03:55.862Z,95946.69
2024-02-23T09:04:57.737Z,95942.59
2024-02-23T09:05:59.694Z,95947.63
2024-02-23T09:07:01.594Z,95949.50
2024-02-23T09:08:03.535Z,95953.94
2024-02-23T09:09:05.088Z,95950.97
2024-02-23T09:10:06.934Z,95949.19
2024-02-23T09:11:08.519Z,95946.22
2024-02-23T09:12:11.883Z,95953.25
2024-02-23T09:13:13.732Z,95954.75
2024-02-23T09:14:15.236Z,95964.53
2024-02-23T09:15:16.829Z,95945.03
2024-02-23T09:16:18.739Z,95945.78
2024-02-23T09:17:21.877Z,95948.38
2024-02-23T09:18:23.473Z,95939.38
2024-02-23T09:19:25.107Z,95941.97
2024-02-23T09:20:28.988Z,95938.97
2024-02-23T09:21:31.069Z,95944.59
2024-02-23T09:22:32.584Z,95947.59
2024-02-23T09:23:34.282Z,95934.53
2024-02-23T09:24:36.228Z,95943.78
2024-02-23T09:25:38.046Z,95940.06
2024-02-23T09:26:40.624Z,95943.03
2024-02-23T09:27:44.767Z,95944.56
2024-02-23T09:28:46.530Z,95955.78
2024-02-23T09:29:47.999Z,95946.81
2024-02-23T09:30:49.503Z,95947.94
2024-02-23T09:31:51.078Z,95959.09
2024-02-23T09:32:52.726Z,95960.16
2024-02-23T09:33:56.355Z,95955.69
2024-02-23T09:34:58.066Z,95967.97
2024-02-23T09:35:59.791Z,95963.38
2024-02-23T09:37:01.358Z,95963.06
2024-02-23T09:38:03.729Z,95961.50
2024-02-23T09:39:05.850Z,95966.72
2024-02-23T09:40:08.120Z,95964.09
2024-02-23T09:41:20.451Z,95971.94
2024-02-23T09:42:27.147Z,95968.28
2024-02-23T09:43:31.459Z,95965.97
2024-02-23T09:44:37.555Z,95973.03
2024-02-23T09:45:39.199Z,95966.63
2024-02-23T09:46:41.515Z,95957.31
2024-02-23T09:47:44.289Z,95960.75
2024-02-23T09:48:47.007Z,95954.34
2024-02-23T09:49:51.421Z,95945.78
2024-02-23T09:50:53.701Z,95943.47
2024-02-23T09:51:56.062Z,95944.91
2024-02-23T09:53:00.153Z,95946.69
2024-02-23T09:54:02.210Z,95953.09
2024-02-23T09:55:04.955Z,95959.75
2024-02-23T09:56:07.601Z,95962.34
2024-02-23T09:57:10.307Z,95968.41
2024-02-23T09:58:16.003Z,95972.25
2024-02-23T09:59:17.792Z,95972.63
2024-02-23T10:00:19.691Z,95980.13
2024-02-23T10:01:34.170Z,95975.63
2024-02-23T10:02:37.193Z,95976.78
2024-02-23T10:03:39.200Z,95980.97
2024-02-23T10:04:42.570Z,95982.47
2024-02-23T10:05:45.603Z,95982.53
2024-02-23T10:06:47.272Z,95984.34
2024-02-23T10:07:48.991Z,95985.06
2024-02-23T10:08:50.600Z,95985.41
2024-02-23T10:09:52.168Z,95985.28
2024-02-23T10:10:53.842Z,95986.94
2024-02-23T10:11:56.334Z,95985.47
2024-02-23T10:12:58.903Z,95987.06
2024-02-23T10:14:00.484Z,95984.78
2024-02-23T10:15:04.981Z,95982.97
2024-02-23T10:16:14.855Z,95983.38
2024-02-23T10:17:17.475Z,95984.88
2024-02-23T10:18:19.641Z,95981.50
2024-02-23T10:19:21.557Z,95993.06
2024-02-23T10:20:23.305Z,95993.13
2024-02-23T10:21:26.544Z,95988.28
2024-02-23T10:22:29.786Z,95986.81
2024-02-23T10:23:32.395Z,95983.06
2024-02-23T10:24:35.032Z,95986.41
2024-02-23T10:25:37.609Z,95984.50
2024-02-23T10:26:39.200Z,95978.84
2024-02-23T10:27:42.702Z,95980.75
2024-02-23T10:28:44.291Z,95979.22
2024-02-23T10:29:45.903Z,95975.75
2024-02-23T10:30:49.119Z,95976.06
2024-02-23T10:31:53.440Z,95981.59
2024-02-23T10:32:58.037Z,95983.41
2024-02-23T10:34:00.015Z,95981.59
2024-02-23T10:35:05.285Z,95983.06
2024-02-23T10:36:09.774Z,95991.66
2024-02-23T10:37:11.422Z,95986.41
2024-02-23T10:38:16.769Z,95991.47
2024-02-23T10:39:23.846Z,95989.94
2024-02-23T10:40:28.065Z,95992.25
2024-02-23T10:41:35.526Z,95999.78
2024-02-23T10:42:39.094Z,95983.19
2024-02-23T10:43:45.869Z,95988.91
2024-02-23T10:44:47.668Z,95987.94
2024-02-23T10:45:50.255Z,95990.84
2024-02-23T10:46:53.652Z,95992.47
2024-02-23T10:47:59.714Z,95993.22
2024-02-23T10:49:04.091Z,95993.56
2024-02-23T10:50:08.203Z,95992.31
2024-02-23T10:51:12.044Z,95982.50
2024-02-23T10:52:14.859Z,95991.56
2024-02-23T10:53:18.100Z,95993.84
2024-02-23T10:54:21.296Z,95993.19
2024-02-23T10:55:24.136Z,95991.69
2024-02-23T10:56:27.089Z,95993.63
2024-02-23T10:57:28.536Z,95989.84
2024-02-23T10:58:30.032Z,95983.47
2024-02-23T10:59:32.280Z,95995.09
2024-02-23T11:00:33.934Z,95990.97
2024-02-23T11:01:37.532Z,95980.50
2024-02-23T11:02:46.616Z,95992.13
2024-02-23T11:03:51.711Z,95982.69
2024-02-23T11:04:58.733Z,95987.13
2024-02-23T11:06:01.066Z,95994.91
2024-02-23T11:07:06.465Z,95995.56
2024-02-23T11:08:08.809Z,95991.78
2024-02-23T11:09:14.561Z,95994.75
2024-02-23T11:10:17.255Z,95988.41
2024-02-23T11:11:21.691Z,95979.88
2024-02-23T11:12:25.701Z,95984.31
2024-02-23T11:14:16.711Z,95985.41
2024-02-23T11:15:43.942Z,95988.94
2024-02-23T11:16:45.504Z,95977.72
2024-02-23T11:17:51.300Z,95983.66
2024-02-23T11:19:06.015Z,95980.63
2024-02-23T11:20:09.277Z,95981.81
2024-02-23T11:21:11.779Z,95988.88
2024-02-23T11:22:19.943Z,95983.72
2024-02-23T11:23:27.707Z,95984.34
2024-02-23T11:24:33.489Z,95994.78
2024-02-23T11:25:36.787Z,95988.41
2024-02-23T11:26:38.977Z,95987.97
2024-02-23T11:27:43.746Z,95985.59
2024-02-23T11:28:55.265Z,95981.72
2024-02-23T11:30:05.193Z,95984.84
2024-02-23T11:31:13.268Z,95973.19
2024-02-23T11:32:15.979Z,95979.81
2024-02-23T11:33:27.452Z,95977.88
2024-02-23T11:34:29.616Z,95974.84
2024-02-23T11:35:31.325Z,95977.00
2024-02-23T11:36:34.389Z,95987.47
2024-02-23T11:37:45.296Z,95982.28
2024-02-23T11:38:47.409Z,95985.03
2024-02-23T11:39:49.454Z,95985.78
2024-02-23T11:40:53.610Z,95988.69
2024-02-23T11:41:55.496Z,95980.34
2024-02-23T11:42:57.296Z,95979.22
2024-02-23T11:44:01.758Z,95980.72
2024-02-23T11:45:04.029Z,95977.19
2024-02-23T11:46:05.585Z,95978.22
2024-02-23T11:47:08.118Z,95977.88
2024-02-23T11:48:09.725Z,95971.44
2024-02-23T11:49:11.425Z,95973.94
2024-02-23T11:50:14.029Z,95970.44
2024-02-23T11:51:16.743Z,95966.09
2024-02-23T11:52:18.419Z,95975.13
2024-02-23T11:53:21.877Z,95969.44
2024-02-23T11:54:23.952Z,95960.75
2024-02-23T11:55:25.542Z,95971.25
2024-02-23T11:56:27.620Z,95971.63
2024-02-23T11:57:30.949Z,95979.97
2024-02-23T11:58:36.205Z,95976.50
2024-02-23T11:59:37.820Z,95976.44
2024-02-23T12:00:41.114Z,95977.91
2024-02-23T12:01:42.990Z,95979.88
2024-02-23T12:02:49.916Z,95982.56
2024-02-23T12:03:52.014Z,95982.13
2024-02-23T12:04:53.785Z,95977.25
2024-02-23T12:05:58.363Z,95978.72
2024-02-23T12:07:00.530Z,95973.41
2024-02-23T12:08:02.884Z,95974.63
2024-02-23T12:09:06.000Z,95971.31
2024-02-23T12:10:08.523Z,95969.47
2024-02-23T12:11:11.042Z,95970.59
2024-02-23T12:12:13.398Z,95963.38
2024-02-23T12:13:15.064Z,95967.88
2024-02-23T12:14:17.717Z,95962.44